Aviation Digital Data Service (ADDS)

Output produced by METARs form (1806 UTC 29 June 2016)
found at http://www.aviationweather.gov/adds/metars/
 
KWWD 291755Z AUTO 31008KT 10SM CLR 27/19 A2990 RMK AO1 10270 20220 57003